EW9605 Lakewood Ranch FL US current weather conditions

sailwx.info

Wind from 322 at 5 knots gusting 6

Air temperature 17.2° C
Dewpoint 11.3° C

Last reported at 2019-Mar-22 05:10 UTC.
Time now 2019-Mar-22 06:13 UTC

Location: N 27°24' W 082°23'.
View on Google Maps.

See reports from other nearby stations

  
Tides and Currents Weather Stations Pressure Air Temp Water Temp Dewpoint Dewpoint Depression Visibility Wind Speed Wind Dir Waves Ship Positions
date/time (UTC)wind fromknots sea level pressurealtimeterstation pressurevisibilityair tempwater tempwave heightnotes
2019-Mar-22 05:10 322 5 gusting 6 17.2
2019-Mar-22 05:05 313 4 gusting 6 17.2
2019-Mar-22 05:00 329 8 gusting 10 17.2
2019-Mar-22 04:55 321 5 gusting 6 16.7
2019-Mar-22 04:50 343 5 gusting 6 16.7
2019-Mar-22 04:45 326 3 gusting 4 17.2
2019-Mar-22 04:40 320 4 gusting 5 17.2
2019-Mar-22 04:35 320 5 gusting 7 17.2
2019-Mar-22 04:30 320 5 gusting 6 17.2
2019-Mar-22 04:23 327 6 gusting 6 16.7
2019-Mar-22 04:18 316 2 gusting 3 16.7
2019-Mar-22 04:13 325 3 gusting 3 17.2
2019-Mar-22 04:08 326 5 gusting 6 16.7
2019-Mar-22 04:03 310 2 gusting 3 16.7
2019-Mar-22 03:58 321 2 gusting 3 16.7
2019-Mar-22 03:53 314 3 gusting 3 17.2
2019-Mar-22 03:48 320 3 gusting 3 17.2
2019-Mar-22 03:43 318 5 gusting 5 17.2
2019-Mar-22 03:38 309 3 gusting 4 17.2
2019-Mar-22 03:33 318 3 gusting 4 17.2
2019-Mar-22 03:28 301 2 gusting 3 17.2
2019-Mar-22 03:23 321 2 gusting 3 17.2
2019-Mar-22 03:18 321 4 gusting 5 17.2
2019-Mar-22 03:13 324 3 gusting 3 17.2
2019-Mar-22 03:10 322 2 gusting 3 17.2
2019-Mar-22 03:05 322 2 gusting 3 17.2
2019-Mar-22 03:00 326 2 gusting 4 17.8
2019-Mar-22 02:55 324 2 gusting 3 17.8
2019-Mar-22 02:50 316 3 gusting 4 17.8
2019-Mar-22 02:45 297 4 gusting 5 17.8
2019-Mar-22 02:40 317 4 gusting 5 17.8
2019-Mar-22 02:35 320 3 gusting 4 17.8
2019-Mar-22 02:30 320 3 gusting 4 17.8
2019-Mar-22 02:25 308 5 gusting 5 17.8
2019-Mar-22 02:20 322 6 gusting 8 17.8
2019-Mar-22 02:15 311 1 gusting 2 17.8
2019-Mar-22 02:10 308 3 gusting 3 17.8
2019-Mar-22 02:05 316 2 gusting 2 17.8
2019-Mar-22 02:00 321 3 gusting 4 17.8
2019-Mar-22 01:55 249 2 gusting 4 17.8
2019-Mar-22 01:50 300 1 gusting 1 17.8
2019-Mar-22 01:45 319 3 gusting 4 17.8
2019-Mar-22 01:40 318 2 gusting 3 17.8
2019-Mar-22 01:35 321 2 gusting 2 17.8
2019-Mar-22 01:30 298 1 gusting 1 17.8
2019-Mar-22 01:25 300 2 gusting 3 17.8
2019-Mar-22 01:20 307 1 gusting 2 17.8
2019-Mar-22 01:15 316 2 gusting 4 17.8
2019-Mar-22 01:10 309 2 gusting 2 17.8
2019-Mar-22 01:05 305 17.2
2019-Mar-22 01:00 297 1 gusting 2 17.2
2019-Mar-22 00:55 292 0 gusting 1 17.2
2019-Mar-22 00:50 323 1 gusting 1 17.8
2019-Mar-22 00:45 306 1 gusting 1 17.8
2019-Mar-22 00:40 293 0 gusting 1 17.8
2019-Mar-22 00:35 301 2 gusting 4 17.8
2019-Mar-22 00:30 307 1 gusting 2 17.8
2019-Mar-22 00:25 313 2 gusting 3 17.8
2019-Mar-22 00:17 302 3 gusting 4 17.8
2019-Mar-22 00:12 261 2 gusting 3 17.8
2019-Mar-22 00:07 312 2 gusting 3 17.8
2019-Mar-22 00:02 312 3 gusting 4 18.3
2019-Mar-21 23:57 315 4 gusting 5 18.3
2019-Mar-21 23:52 307 6 gusting 7 18.3
2019-Mar-21 23:47 312 3 gusting 4 18.3
2019-Mar-21 23:42 318 4 gusting 5 18.3
2019-Mar-21 23:37 319 3 gusting 4 18.3
2019-Mar-21 23:32 329 6 gusting 7 18.9
2019-Mar-21 23:27 313 5 gusting 5 18.9
2019-Mar-21 23:22 319 9 gusting 11 18.9
2019-Mar-21 23:17 314 5 gusting 6 18.9
2019-Mar-21 23:12 348 8 gusting 10 18.9
2019-Mar-21 23:07 322 7 gusting 9 18.9
2019-Mar-21 23:02 187 4 gusting 5 19.4
2019-Mar-21 22:57 218 8 gusting 9 19.4
2019-Mar-21 22:52 328 7 gusting 9 19.4
2019-Mar-21 22:47 322 8 gusting 11 19.4
2019-Mar-21 22:42 348 6 gusting 7 19.4
2019-Mar-21 22:37 298 6 gusting 8 19.4
2019-Mar-21 22:32 313 6 gusting 7 20.0
2019-Mar-21 22:27 340 10 gusting 11 20.0
2019-Mar-21 22:22 352 7 gusting 9 19.4
2019-Mar-21 22:17 320 10 gusting 12 20.0
2019-Mar-21 22:10 326 7 gusting 9 20.0
2019-Mar-21 22:05 327 5 gusting 7 20.0
2019-Mar-21 22:00 295 6 gusting 9 20.0
2019-Mar-21 21:55 322 10 gusting 13 20.0
2019-Mar-21 21:50 333 6 gusting 7 20.0
2019-Mar-21 21:45 320 6 gusting 6 20.0
2019-Mar-21 21:40 348 10 gusting 12 20.0
2019-Mar-21 21:35 316 6 gusting 9 20.6
2019-Mar-21 21:30 318 12 gusting 14 20.6
2019-Mar-21 21:25 342 8 gusting 9 20.6
2019-Mar-21 21:20 328 11 gusting 13 20.6
2019-Mar-21 21:15 351 11 gusting 13 20.6
2019-Mar-21 21:10 323 8 gusting 11 20.6
2019-Mar-21 21:05 319 6 gusting 9 20.6
2019-Mar-21 21:00 325 11 gusting 14 20.6
2019-Mar-21 20:55 324 6 gusting 7 20.6
2019-Mar-21 20:50 312 10 gusting 12 20.6
2019-Mar-21 20:45 316 8 gusting 9 20.6
2019-Mar-21 20:40 325 13 gusting 14 20.6
2019-Mar-21 20:35 332 14 gusting 17 20.6
2019-Mar-21 20:30 321 9 gusting 10 20.6
2019-Mar-21 20:25 328 11 gusting 12 20.6
2019-Mar-21 20:20 294 7 gusting 9 20.6
2019-Mar-21 20:15 293 6 gusting 9 20.6
2019-Mar-21 20:10 317 5 gusting 8 20.6
2019-Mar-21 20:01 344 7 gusting 8 20.0
2019-Mar-21 19:56 332 11 gusting 12 20.0
2019-Mar-21 19:51 304 10 gusting 12 20.0
2019-Mar-21 19:46 322 8 gusting 9 20.6
2019-Mar-21 19:41 288 6 gusting 8 20.6
2019-Mar-21 19:36 318 8 gusting 9 20.0
2019-Mar-21 19:31 327 6 gusting 7 20.6
2019-Mar-21 19:26 333 6 gusting 7 20.6
2019-Mar-21 19:21 309 6 gusting 7 20.0
2019-Mar-21 19:16 312 11 gusting 14 20.6
2019-Mar-21 19:11 358 6 gusting 7 20.6
2019-Mar-21 19:06 303 7 gusting 10 20.6
2019-Mar-21 19:01 323 6 gusting 9 20.0
2019-Mar-21 18:56 324 9 gusting 11 21.1
2019-Mar-21 18:49 331 11 gusting 13 20.6
2019-Mar-21 18:44 319 7 gusting 9 20.6
2019-Mar-21 18:39 342 9 gusting 11 20.6
2019-Mar-21 18:34 261 4 gusting 4 20.0
2019-Mar-21 18:29 336 7 gusting 9 20.6
2019-Mar-21 18:24 314 9 gusting 14 20.0
2019-Mar-21 18:19 319 12 gusting 12 20.0
2019-Mar-21 18:14 340 10 gusting 13 20.0
2019-Mar-21 18:09 294 8 gusting 10 20.0
2019-Mar-21 18:04 329 5 gusting 6 20.0
2019-Mar-21 17:59 354 8 gusting 9 20.0
2019-Mar-21 17:54 322 12 gusting 14 20.6
2019-Mar-21 17:49 332 10 gusting 14 20.0
2019-Mar-21 17:44 355 6 gusting 9 20.0
2019-Mar-21 17:39 321 10 gusting 11 20.6
2019-Mar-21 17:34 324 6 gusting 7 20.6
2019-Mar-21 17:29 322 7 gusting 8 20.6
2019-Mar-21 17:24 086 6 gusting 8 20.0
2019-Mar-21 17:19 298 6 gusting 8 20.6
2019-Mar-21 17:14 325 9 gusting 10 20.6
2019-Mar-21 17:09 312 6 gusting 8 20.0
2019-Mar-21 17:04 320 6 gusting 7 20.0
2019-Mar-21 16:59 320 11 gusting 13 20.6
2019-Mar-21 16:54 323 9 gusting 10 21.1
2019-Mar-21 16:49 316 6 gusting 9 20.6
2019-Mar-21 16:41 321 5 gusting 7 20.6
2019-Mar-21 16:36 348 7 gusting 9 20.6
2019-Mar-21 16:31 337 4 gusting 4 20.6
2019-Mar-21 16:26 322 3 gusting 4 20.6
2019-Mar-21 16:21 345 7 gusting 9 20.0
2019-Mar-21 16:16 324 4 gusting 5 20.6
2019-Mar-21 16:11 319 7 gusting 9 20.6
2019-Mar-21 16:06 326 8 gusting 9 20.0
2019-Mar-21 16:01 002 3 gusting 4 20.0
2019-Mar-21 15:56 312 6 gusting 7 20.0
2019-Mar-21 15:51 317 5 gusting 7 20.0
2019-Mar-21 15:46 333 2 gusting 6 20.0
2019-Mar-21 15:41 232 5 gusting 6 20.0
2019-Mar-21 15:36 329 5 gusting 6 20.0
2019-Mar-21 15:31 325 3 gusting 3 20.0
2019-Mar-21 15:26 359 5 gusting 8 20.0
2019-Mar-21 15:21 339 6 gusting 9 20.0
2019-Mar-21 15:16 345 7 gusting 9 19.4
2019-Mar-21 15:11 018 2 gusting 3 19.4
2019-Mar-21 15:06 050 6 gusting 8 19.4
2019-Mar-21 15:01 335 8 gusting 10 19.4
2019-Mar-21 14:56 008 2 gusting 5 19.4
2019-Mar-21 14:51 349 4 gusting 8 19.4
2019-Mar-21 14:46 352 5 gusting 7 19.4
2019-Mar-21 14:41 350 6 gusting 8 19.4
2019-Mar-21 14:36 359 2 gusting 3 19.4
2019-Mar-21 14:31 353 3 gusting 4 18.9
2019-Mar-21 14:26 345 7 gusting 8 18.9
2019-Mar-21 14:19 025 7 gusting 10 18.9
2019-Mar-21 14:14 329 7 gusting 8 18.9
2019-Mar-21 14:09 339 6 gusting 8 18.9
2019-Mar-21 14:04 312 6 gusting 8 18.3
2019-Mar-21 13:59 324 7 gusting 8 18.3
2019-Mar-21 13:54 008 5 gusting 6 18.3
2019-Mar-21 13:49 344 5 gusting 6 18.3
2019-Mar-21 13:44 011 6 gusting 9 18.3
2019-Mar-21 13:36 011 5 gusting 7 17.8
2019-Mar-21 13:31 17.8
2019-Mar-21 13:26 338 5 gusting 7 17.8
2019-Mar-21 13:21 355 6 gusting 7 17.8
2019-Mar-21 13:16 329 5 gusting 6 17.8
2019-Mar-21 13:11 354 2 gusting 3 17.2
2019-Mar-21 13:06 351 3 gusting 4 16.7
2019-Mar-21 13:01 337 3 gusting 3 17.2
2019-Mar-21 12:56 336 3 gusting 4 17.2
2019-Mar-21 12:51 348 3 gusting 3 17.2
2019-Mar-21 12:46 329 3 gusting 4 16.7
2019-Mar-21 12:41 356 1 gusting 2 16.7
2019-Mar-21 12:36 344 2 gusting 3 16.1
2019-Mar-21 12:31 350 1 gusting 1 16.1
2019-Mar-21 12:26 343 1 gusting 2 15.6
2019-Mar-21 12:21 336 1 gusting 1 15.6
2019-Mar-21 12:16 001 0 gusting 0 15.6
2019-Mar-21 12:11 005 0 gusting 0 15.0
2019-Mar-21 12:06 003 1 gusting 1 15.0
2019-Mar-21 12:01 356 15.0
2019-Mar-21 11:56 356 0 gusting 0 14.4
2019-Mar-21 11:51 356 14.4
2019-Mar-21 11:46 356 0 gusting 0 14.4
2019-Mar-21 11:41 14.4
2019-Mar-21 11:36 357 14.4
2019-Mar-21 11:29 357 14.4
2019-Mar-21 11:24 15.0
2019-Mar-21 11:19 357 15.0
2019-Mar-21 11:14 356 0 gusting 0 15.0
2019-Mar-21 11:09 359 0 gusting 0 15.0
2019-Mar-21 11:04 15.0
2019-Mar-21 10:59 15.0
2019-Mar-21 10:51 359 0 gusting 0 15.0
2019-Mar-21 10:46 15.0
2019-Mar-21 10:41 15.0
2019-Mar-21 10:36 359 15.0
2019-Mar-21 10:31 359 15.0
2019-Mar-21 10:26 359 15.0
2019-Mar-21 10:21 359 15.6
2019-Mar-21 10:16 359 0 gusting 1 15.6
2019-Mar-21 10:11 356 0 gusting 1 15.6
2019-Mar-21 10:06 002 1 gusting 2 15.6
2019-Mar-21 10:01 002 0 gusting 1 15.6
2019-Mar-21 09:56 002 0 gusting 1 15.6
2019-Mar-21 09:51 002 15.6
2019-Mar-21 09:46 002 1 gusting 2 15.6
2019-Mar-21 09:41 027 16.1
2019-Mar-21 09:36 017 16.1
2019-Mar-21 09:31 012 16.1
2019-Mar-21 09:26 358 1 gusting 2 16.1
2019-Mar-21 09:21 350 2 gusting 2 15.6
2019-Mar-21 09:16 357 1 gusting 2 15.6
2019-Mar-21 09:11 15.6
2019-Mar-21 09:06 006 0 gusting 1 15.6
2019-Mar-21 09:01 001 15.6
2019-Mar-21 08:56 001 0 gusting 1 15.6
2019-Mar-21 08:51 001 0 gusting 0 15.6
2019-Mar-21 08:47 001 15.6
2019-Mar-21 08:42 001 0 gusting 0 15.6
2019-Mar-21 08:37 001 15.6
2019-Mar-21 08:32 001 0 gusting 0 15.6
2019-Mar-21 08:27 002 0 gusting 1 16.1
2019-Mar-21 08:22 002 0 gusting 0 16.1
2019-Mar-21 08:17 16.1
2019-Mar-21 08:12 16.1
2019-Mar-21 08:07 16.1
2019-Mar-21 08:02 16.1
2019-Mar-21 07:57 16.1
2019-Mar-21 07:52 001 16.1
2019-Mar-21 07:47 005 0 gusting 1 16.1
2019-Mar-21 07:42 16.1
2019-Mar-21 07:37 009 16.1
2019-Mar-21 07:32 009 0 gusting 0 16.1
2019-Mar-21 07:27 011 0 gusting 0 16.1
2019-Mar-21 07:22 011 0 gusting 0 16.1
2019-Mar-21 07:17 011 16.1
2019-Mar-21 07:12 008 0 gusting 1 16.1
2019-Mar-21 07:07 357 0 gusting 0 16.1
2019-Mar-21 07:02 353 2 gusting 2 16.1
2019-Mar-21 06:57 351 2 gusting 3 16.7
2019-Mar-21 06:52 015 16.7
2019-Mar-21 06:47 009 1 gusting 2 16.7
2019-Mar-21 06:42 015 0 gusting 2 16.7
2019-Mar-21 06:39 009 0 gusting 1 16.7
2019-Mar-21 06:34 16.7
2019-Mar-21 06:29 359 0 gusting 1 16.7
2019-Mar-21 06:24 001 1 gusting 2 16.7
2019-Mar-21 06:19 011 0 gusting 1 16.7
2019-Mar-21 06:14 012 16.7
2019-Mar-21 06:09 003 16.7
2019-Mar-21 06:04 355 0 gusting 1 16.7
2019-Mar-21 05:59 359 1 gusting 1 16.7
2019-Mar-21 05:54 352 1 gusting 2 16.7
2019-Mar-21 05:49 340 0 gusting 1 16.1
2019-Mar-21 05:44 331 1 gusting 2 16.1
2019-Mar-21 05:39 331 0 gusting 1 16.7
2019-Mar-21 05:34 331 0 gusting 0 16.7
2019-Mar-21 05:29 331 0 gusting 0 16.7
2019-Mar-21 05:24 331 16.7
2019-Mar-21 05:19 331 0 gusting 0 16.7
2019-Mar-21 05:14 16.7
2019-Mar-21 05:09 331 16.7
2019-Mar-21 05:04 16.7
2019-Mar-21 04:59 16.7
2019-Mar-21 04:54 17.2
2019-Mar-21 04:49 17.2
2019-Mar-21 04:44 17.2
2019-Mar-21 04:39 17.8
2019-Mar-21 04:34 331 0 gusting 0 17.8
2019-Mar-21 04:29 331 17.8
2019-Mar-21 04:24 331 0 gusting 1 17.8
2019-Mar-21 04:19 329 0 gusting 0 17.8
2019-Mar-21 04:14 327 0 gusting 0 17.8
2019-Mar-21 04:09 327 0 gusting 1 18.3
2019-Mar-21 04:04 326 1 gusting 2 18.3
2019-Mar-21 03:59 329 1 gusting 2 18.3
2019-Mar-21 03:54 18.3
2019-Mar-21 03:49 026 18.9
2019-Mar-21 03:44 035 18.9
2019-Mar-21 03:36 029 0 gusting 1 18.9
2019-Mar-21 03:31 029 18.9
2019-Mar-21 03:26 013 18.9
2019-Mar-21 03:21 012 0 gusting 0 18.9
2019-Mar-21 03:16 351 0 gusting 1 18.9
2019-Mar-21 03:11 043 18.9
2019-Mar-21 03:06 044 18.9
2019-Mar-21 03:01 065 18.9
2019-Mar-21 02:56 072 19.4
2019-Mar-21 02:51 19.4
2019-Mar-21 02:46 080 1 gusting 2 19.4
2019-Mar-21 02:41 089 0 gusting 1 19.4
2019-Mar-21 02:36 084 0 gusting 2 19.4
2019-Mar-21 02:31 080 19.4
2019-Mar-21 02:26 19.4
2019-Mar-21 02:21 19.4
2019-Mar-21 02:16 084 1 gusting 2 19.4
2019-Mar-21 02:11 082 0 gusting 1 19.4
2019-Mar-21 02:06 076 19.4
2019-Mar-21 02:01 19.4
2019-Mar-21 01:56 19.4
2019-Mar-21 01:51 080 19.4
2019-Mar-21 01:46 079 19.4
2019-Mar-21 01:41 19.4
2019-Mar-21 01:36 19.4
2019-Mar-21 01:28 19.4
2019-Mar-21 01:23 19.4
2019-Mar-21 01:18 045 20.0
2019-Mar-21 01:13 041 20.0
2019-Mar-21 01:08 040 0 gusting 0 20.0
2019-Mar-21 01:03 048 0 gusting 1 20.0
2019-Mar-21 00:58 044 0 gusting 1 20.0
2019-Mar-21 00:53 040 20.0
2019-Mar-21 00:48 20.0
2019-Mar-21 00:43 20.0
2019-Mar-21 00:38 060 20.0
2019-Mar-21 00:33 20.0
2019-Mar-21 00:28 20.0
2019-Mar-21 00:23 047 20.0
2019-Mar-21 00:18 20.0
2019-Mar-21 00:13 20.0
2019-Mar-21 00:08 20.0
2019-Mar-21 00:03 20.6
2019-Mar-20 23:58 20.6
2019-Mar-20 23:53 047 20.6
2019-Mar-20 23:48 047 20.6
2019-Mar-20 23:43 047 21.1
2019-Mar-20 23:38 054 1 gusting 1 21.1
2019-Mar-20 23:33 046 0 gusting 1 21.1
2019-Mar-20 23:28 053 1 gusting 2 21.1
2019-Mar-20 23:20 032 21.1
2019-Mar-20 23:15 029 0 gusting 1 21.7
2019-Mar-20 23:10 046 2 gusting 3 21.7
2019-Mar-20 23:05 057 21.7
2019-Mar-20 23:00 049 0 gusting 1 21.7
2019-Mar-20 22:55 035 1 gusting 2 21.7
2019-Mar-20 22:50 053 1 gusting 2 21.7
2019-Mar-20 22:45 047 1 gusting 1 21.7
2019-Mar-20 22:40 21.7
2019-Mar-20 22:35 073 4 gusting 5 21.7
2019-Mar-20 22:30 064 0 gusting 1 22.2
2019-Mar-20 22:25 047 3 gusting 4 21.7
2019-Mar-20 22:20 074 0 gusting 2 21.7
2019-Mar-20 22:15 081 22.2
2019-Mar-20 22:10 040 2 gusting 3 22.2
2019-Mar-20 22:05 037 2 gusting 4 22.2
2019-Mar-20 22:00 346 0 gusting 1 22.2
2019-Mar-20 21:55 073 22.2
2019-Mar-20 21:50 054 2 gusting 3 22.2
2019-Mar-20 21:45 040 1 gusting 2 22.2
2019-Mar-20 21:40 039 3 gusting 4 22.2
2019-Mar-20 21:35 027 2 gusting 3 22.2
2019-Mar-20 21:30 029 4 gusting 5 22.2
2019-Mar-20 21:25 055 22.2
2019-Mar-20 21:20 039 2 gusting 2 22.2
2019-Mar-20 21:11 070 1 gusting 3 21.7
2019-Mar-20 21:06 088 1 gusting 2 21.7
2019-Mar-20 21:01 083 6 gusting 7 21.7
2019-Mar-20 20:56 076 1 gusting 3 21.7
2019-Mar-20 20:51 061 22.2
2019-Mar-20 20:46 050 0 gusting 1 22.2
2019-Mar-20 20:41 045 1 gusting 2 22.2
2019-Mar-20 20:36 043 3 gusting 3 22.2
2019-Mar-20 20:31 057 1 gusting 4 22.2
2019-Mar-20 20:26 030 1 gusting 1 22.2
2019-Mar-20 20:21 037 2 gusting 3 22.2
2019-Mar-20 20:16 037 2 gusting 3 22.2
2019-Mar-20 20:11 042 3 gusting 5 22.2
2019-Mar-20 20:06 045 4 gusting 5 22.2
2019-Mar-20 20:01 075 3 gusting 5 22.2
2019-Mar-20 19:56 066 0 gusting 1 22.2
2019-Mar-20 19:51 065 22.2
2019-Mar-20 19:46 086 2 gusting 4 22.2
2019-Mar-20 19:41 084 3 gusting 4 22.2
2019-Mar-20 19:36 070 22.2
2019-Mar-20 19:31 063 2 gusting 2 22.2
2019-Mar-20 19:26 095 5 gusting 7 22.2
2019-Mar-20 19:22 048 4 gusting 6 22.2
2019-Mar-20 19:17 066 22.8
2019-Mar-20 19:12 289 0 gusting 1 22.8
2019-Mar-20 19:07 091 3 gusting 4 22.2
2019-Mar-20 19:02 087 3 gusting 3 22.2
2019-Mar-20 18:57 068 4 gusting 6 22.2
2019-Mar-20 18:52 078 2 gusting 4 22.8
2019-Mar-20 18:47 046 3 gusting 4 22.8
2019-Mar-20 18:42 074 22.8
2019-Mar-20 18:37 069 0 gusting 2 22.8
2019-Mar-20 18:32 086 0 gusting 0 22.2
2019-Mar-20 18:27 076 0 gusting 2 22.2
2019-Mar-20 18:22 082 4 gusting 6 22.2
2019-Mar-20 18:17 069 6 gusting 10 22.8
2019-Mar-20 18:12 058 3 gusting 5 22.2
2019-Mar-20 18:04 056 3 gusting 5 22.2
2019-Mar-20 17:59 065 1 gusting 2 22.2
2019-Mar-20 17:54 058 1 gusting 4 22.2
2019-Mar-20 17:49 071 1 gusting 2 22.2
2019-Mar-20 17:44 084 1 gusting 3 22.2
2019-Mar-20 17:39 054 0 gusting 2 22.2
2019-Mar-20 17:34 099 8 gusting 11 22.2
2019-Mar-20 17:29 063 1 gusting 3 21.7
2019-Mar-20 17:24 065 3 gusting 5 21.7
2019-Mar-20 17:19 043 6 gusting 6 21.7
2019-Mar-20 17:14 054 3 gusting 6 21.7
2019-Mar-20 17:09 068 5 gusting 7 21.7
2019-Mar-20 17:04 081 3 gusting 5 21.7
2019-Mar-20 16:59 075 3 gusting 5 21.7
2019-Mar-20 16:54 060 0 gusting 1 21.7
2019-Mar-20 16:49 066 0 gusting 1 21.1
2019-Mar-20 16:44 097 8 gusting 10 21.1
2019-Mar-20 16:39 088 7 gusting 10 21.1
2019-Mar-20 16:34 032 4 gusting 4 21.1
2019-Mar-20 16:29 067 4 gusting 6 21.1
2019-Mar-20 16:24 069 4 gusting 7 21.1
2019-Mar-20 16:19 048 6 gusting 8 21.1
2019-Mar-20 16:14 061 1 gusting 4 20.6
2019-Mar-20 16:09 043 3 gusting 5 20.6
2019-Mar-20 16:04 039 2 gusting 3 20.6
2019-Mar-20 15:59 060 1 gusting 2 20.0
2019-Mar-20 15:54 070 1 gusting 3 20.0
2019-Mar-20 15:49 027 4 gusting 6 19.4
2019-Mar-20 15:44 054 5 gusting 6 19.4
2019-Mar-20 15:39 041 2 gusting 3 19.4
2019-Mar-20 15:34 051 3 gusting 5 19.4
2019-Mar-20 15:29 089 0 gusting 3 19.4
2019-Mar-20 15:24 071 3 gusting 5 18.9
2019-Mar-20 15:19 069 2 gusting 3 18.9
2019-Mar-20 15:14 107 1 gusting 3 18.9
2019-Mar-20 15:09 034 3 gusting 3 18.3
2019-Mar-20 15:04 048 5 gusting 6 18.3
2019-Mar-20 14:59 048 1 gusting 3 18.9
2019-Mar-20 14:51 058 2 gusting 4 17.8
2019-Mar-20 14:46 041 6 gusting 7 17.8
2019-Mar-20 14:42 069 3 gusting 6 17.8
2019-Mar-20 14:37 048 3 gusting 4 17.8
2019-Mar-20 14:32 053 3 gusting 4 17.8
2019-Mar-20 14:27 070 4 gusting 5 17.8
2019-Mar-20 14:22 085 0 gusting 2 17.8
2019-Mar-20 14:17 073 17.2
2019-Mar-20 14:12 066 4 gusting 8 17.8
2019-Mar-20 14:07 093 17.8
2019-Mar-20 14:02 049 4 gusting 5 17.8
2019-Mar-20 13:57 063 0 gusting 2 17.2
2019-Mar-20 13:52 061 1 gusting 6 17.2
2019-Mar-20 13:47 045 5 gusting 6 17.2
2019-Mar-20 13:42 045 4 gusting 5 16.7
2019-Mar-20 13:37 062 0 gusting 4 16.7
2019-Mar-20 13:32 077 1 gusting 3 16.7
2019-Mar-20 13:27 041 3 gusting 4 16.7
2019-Mar-20 13:22 031 4 gusting 5 16.7
2019-Mar-20 13:17 079 0 gusting 2 16.7
2019-Mar-20 13:12 053 1 gusting 4 16.7
2019-Mar-20 13:07 030 4 gusting 4 16.1
2019-Mar-20 13:02 065 2 gusting 3 16.1
2019-Mar-20 12:57 066 3 gusting 4 15.6
2019-Mar-20 12:52 062 3 gusting 4 15.6
2019-Mar-20 12:43 037 2 gusting 3 15.6
2019-Mar-20 12:38 041 2 gusting 4 15.6
2019-Mar-20 12:33 059 15.6
2019-Mar-20 12:28 036 3 gusting 5 15.6
2019-Mar-20 12:23 033 3 gusting 4 15.0
2019-Mar-20 12:18 070 4 gusting 7 15.0
2019-Mar-20 12:13 042 3 gusting 5 15.0
2019-Mar-20 12:08 046 3 gusting 4 15.0
2019-Mar-20 12:03 066 1 gusting 3 15.0
2019-Mar-20 11:58 049 3 gusting 6 15.0
2019-Mar-20 11:53 049 1 gusting 3 15.0
2019-Mar-20 11:48 058 1 gusting 4 15.0
2019-Mar-20 11:43 052 5 gusting 6 15.0
2019-Mar-20 11:38 077 4 gusting 6 15.0
2019-Mar-20 11:33 035 4 gusting 5 15.0
2019-Mar-20 11:28 061 2 gusting 4 15.0
2019-Mar-20 11:23 047 3 gusting 4 15.0
2019-Mar-20 11:18 057 1 gusting 3 15.0
2019-Mar-20 11:13 056 5 gusting 6 15.0
2019-Mar-20 11:08 067 3 gusting 6 15.0
2019-Mar-20 11:03 058 6 gusting 7 15.0
2019-Mar-20 10:55 051 3 gusting 5 15.0
2019-Mar-20 10:50 049 2 gusting 2 15.0
2019-Mar-20 10:45 042 3 gusting 4 14.4
2019-Mar-20 10:40 037 3 gusting 4 15.0
2019-Mar-20 10:35 050 2 gusting 5 14.4
2019-Mar-20 10:30 051 3 gusting 4 14.4
2019-Mar-20 10:25 058 3 gusting 4 14.4
2019-Mar-20 10:20 053 3 gusting 4 14.4
2019-Mar-20 10:15 045 3 gusting 5 14.4
2019-Mar-20 10:10 057 1 gusting 2 14.4
2019-Mar-20 10:05 059 2 gusting 3 14.4
2019-Mar-20 10:00 042 2 gusting 4 14.4
2019-Mar-20 09:55 067 2 gusting 5 14.4
2019-Mar-20 09:50 049 3 gusting 4 14.4
2019-Mar-20 09:45 050 3 gusting 4 14.4
2019-Mar-20 09:40 046 5 gusting 6 14.4
2019-Mar-20 09:35 044 3 gusting 4 14.4
2019-Mar-20 09:30 044 3 gusting 4 14.4
2019-Mar-20 09:25 026 4 gusting 6 14.4
2019-Mar-20 09:20 047 1 gusting 3 14.4
2019-Mar-20 09:15 067 3 gusting 6 14.4
2019-Mar-20 09:10 051 2 gusting 3 14.4
2019-Mar-20 09:05 044 5 gusting 6 14.4
2019-Mar-20 09:00 068 0 gusting 2 14.4
2019-Mar-20 08:55 061 6 gusting 10 14.4
2019-Mar-20 08:44 062 3 gusting 4 14.4
2019-Mar-20 08:39 074 1 gusting 3 14.4
2019-Mar-20 08:34 054 5 gusting 5 14.4
2019-Mar-20 08:29 071 3 gusting 5 14.4
2019-Mar-20 08:24 050 4 gusting 5 14.4
2019-Mar-20 08:19 040 3 gusting 5 14.4
2019-Mar-20 08:14 062 3 gusting 4 14.4
2019-Mar-20 08:09 043 6 gusting 8 14.4
2019-Mar-20 08:04 052 3 gusting 5 14.4
2019-Mar-20 07:59 051 5 gusting 7 14.4
2019-Mar-20 07:54 037 1 gusting 3 14.4
2019-Mar-20 07:49 036 6 gusting 7 14.4
2019-Mar-20 07:44 033 3 gusting 4 14.4
2019-Mar-20 07:39 040 1 gusting 3 14.4
2019-Mar-20 07:34 035 3 gusting 5 14.4
2019-Mar-20 07:29 043 3 gusting 3 14.4
2019-Mar-20 07:24 038 2 gusting 3 14.4
2019-Mar-20 07:19 039 4 gusting 5 14.4
2019-Mar-20 07:14 045 2 gusting 3 14.4
2019-Mar-20 07:09 040 3 gusting 4 15.0
2019-Mar-20 07:04 041 1 gusting 2 15.0
2019-Mar-20 06:59 042 3 gusting 4 15.0
2019-Mar-20 06:54 033 3 gusting 4 15.0
2019-Mar-20 06:49 035 1 gusting 2 15.0
2019-Mar-20 06:44 043 4 gusting 6 15.0
2019-Mar-20 06:36 049 6 gusting 8 15.0
2019-Mar-20 06:31 018 7 gusting 9 15.0
2019-Mar-20 06:26 041 6 gusting 9 15.0
2019-Mar-20 06:21 035 4 gusting 5 15.0
2019-Mar-20 06:16 040 6 gusting 7 15.0
2019-Mar-20 06:11 019 2 gusting 3 15.0
2019-Mar-20 06:06 038 2 gusting 3 15.0
2019-Mar-20 06:01 053 3 gusting 4 15.6